Ryuhomaru — JD2639 — position and weather

sailwx.info

Track history (hours):
 
Tides and Currents Weather Stations Pressure Air Temp Water Temp Dewpoint Dewpoint Depression Visibility Wind Speed Wind Dir Waves Ship Positions

Ryuhomaru

Last reported at 2014-Sep-18 05:33 UTC. Time now 2014-Sep-18 09:42 UTC.
Position N 34°33' E 135°27'.

Length 42 m; draft 3.5 m.

Type: Tug. MMSI: 431000586.

Date/timePositionNaut miles runAvg speedWind from/ knotsBaromVisibWave heightAir tempDewpointWater temp
2014-Sep-18 05:33N 34°33' E 135°27'0 0.0
2014-Sep-18 04:33N 34°33' E 135°27'0 0.0
2014-Sep-18 03:33N 34°33' E 135°27'0 0.0
2014-Sep-18 02:33N 34°33' E 135°27'0 0.0
2014-Sep-18 01:33N 34°33' E 135°27'2 1.1
2014-Sep-17 23:30N 34°34' E 135°24'3 3.1
2014-Sep-17 22:33N 34°33' E 135°21'5 4.8
2014-Sep-17 21:31N 34°33' E 135°27'0 0.0
2014-Sep-17 20:33N 34°33' E 135°27'0 0.0
2014-Sep-17 08:03N 34°33' E 135°27'2 4.2
2014-Sep-17 07:33N 34°33' E 135°24'1 1.1
2014-Sep-17 06:33N 34°33' E 135°23'2 2.2
2014-Sep-17 05:32N 34°33' E 135°25'1 1.0
2014-Sep-17 04:33N 34°33' E 135°27'0 0.0
2014-Sep-17 03:16N 34°33' E 135°27'0 0.0
2014-Sep-17 02:22N 34°33' E 135°27'0 0.0
2014-Sep-17 01:29N 34°33' E 135°27'0 0.0
2014-Sep-17 00:29N 34°33' E 135°27'3 3.2
2014-Sep-16 23:28N 34°33' E 135°23'2 2.4
2014-Sep-16 22:30N 34°33' E 135°25'1 1.2
2014-Sep-16 21:33N 34°33' E 135°27'0 0.0
2014-Sep-16 07:33N 34°33' E 135°27'4 3.7
2014-Sep-16 06:33N 34°31' E 135°23'4 3.7
2014-Sep-16 05:33N 34°33' E 135°27'0 0.0
2014-Sep-16 04:33N 34°33' E 135°27'0 0.0
2014-Sep-16 03:33N 34°33' E 135°27'0 0.0
2014-Sep-16 02:33N 34°33' E 135°27'0 0.0
2014-Sep-16 01:33N 34°33' E 135°27'1 1.1
2014-Sep-16 00:32N 34°33' E 135°25'0 0.3
2014-Sep-15 23:33N 34°33' E 135°26'1 0.9
2014-Sep-15 22:33N 34°33' E 135°27'  
2014-Sep-13 07:27N 34°33' E 135°27'2 2.3
2014-Sep-13 06:33N 34°33' E 135°24'0 0.1
2014-Sep-13 05:32N 34°33' E 135°24'0 0.1
2014-Sep-13 04:32N 34°33' E 135°24'0 0.1
2014-Sep-13 03:33N 34°33' E 135°24'0 0.1
2014-Sep-13 02:32N 34°33' E 135°24'0 0.0
2014-Sep-13 01:29N 34°33' E 135°24'0 0.1
2014-Sep-13 00:32N 34°33' E 135°24'0 0.0
2014-Sep-12 23:33N 34°33' E 135°24'0 0.1
2014-Sep-12 22:33N 34°33' E 135°24'0 0.1
2014-Sep-12 21:32N 34°33' E 135°24'0 0.1
2014-Sep-12 20:32N 34°33' E 135°24'0 0.1
2014-Sep-12 19:29N 34°33' E 135°24'0 0.0
2014-Sep-12 18:33N 34°33' E 135°24'0 0.1
2014-Sep-12 17:33N 34°33' E 135°24'0 0.0
2014-Sep-12 16:31N 34°33' E 135°24'0 0.2
2014-Sep-12 15:33N 34°33' E 135°24'0 0.1
2014-Sep-12 14:32N 34°33' E 135°24'0 0.1
2014-Sep-12 13:33N 34°33' E 135°24'0 0.1
2014-Sep-12 12:33N 34°33' E 135°24'0 0.1
2014-Sep-12 11:33N 34°33' E 135°24'0 0.1
2014-Sep-12 10:33N 34°33' E 135°24'0 0.1
2014-Sep-12 09:32N 34°33' E 135°24'0 0.1
2014-Sep-12 08:25N 34°33' E 135°24'0 0.1
2014-Sep-12 07:33N 34°33' E 135°24'0 0.3
2014-Sep-12 06:33N 34°33' E 135°24'2 1.8
2014-Sep-12 05:31N 34°33' E 135°27'0 0.0
2014-Sep-12 04:32N 34°33' E 135°27'2 2.1
2014-Sep-12 03:33N 34°34' E 135°24'0 0.1
2014-Sep-12 02:32N 34°34' E 135°24'4 3.5
2014-Sep-12 01:32N 34°33' E 135°20'4 3.9
2014-Sep-12 00:32N 34°33' E 135°25'1 1.5
2014-Sep-11 23:33N 34°33' E 135°27'0 0.0
2014-Sep-11 22:33N 34°33' E 135°27'0 0.0
2014-Sep-11 06:33N 34°33' E 135°27'1 1.2
2014-Sep-11 05:28N 34°33' E 135°25'3 3.7
2014-Sep-11 04:32N 34°33' E 135°21'4 1.7
2014-Sep-11 02:25N 34°31' E 135°24'3 1.5
2014-Sep-11 00:31N 34°33' E 135°24'1 1.2
2014-Sep-10 23:32N 34°33' E 135°26'1 0.0
2014-Sep-10 08:33N 34°33' E 135°27'1 0.9
2014-Sep-10 07:07N 34°33' E 135°25'1 2.1
2014-Sep-10 06:33N 34°33' E 135°27'0 0.0
2014-Sep-10 05:32N 34°33' E 135°27'0 0.0
2014-Sep-10 04:33N 34°33' E 135°27'0 0.0
2014-Sep-10 03:33N 34°33' E 135°27'0 0.0
2014-Sep-10 02:33N 34°33' E 135°27'0 0.0
2014-Sep-10 01:33N 34°33' E 135°27'0 0.0
2014-Sep-10 00:32N 34°33' E 135°27'0 0.0
2014-Sep-09 23:33N 34°33' E 135°27'0 0.0
2014-Sep-09 22:33N 34°33' E 135°27'0 0.0
2014-Sep-09 06:32N 34°33' E 135°27'0 0.0
2014-Sep-09 05:33N 34°33' E 135°27'0 0.0
2014-Sep-09 04:33N 34°33' E 135°27'1 1.3
2014-Sep-09 03:31N 34°33' E 135°25'0 0.2
2014-Sep-09 02:30N 34°33' E 135°25'4 4.4
2014-Sep-09 01:32N 34°34' E 135°20'0 0.5
2014-Sep-09 00:33N 34°34' E 135°21'5 3.8
2014-Sep-08 23:15N 34°33' E 135°27'  
Track history (hours):
 
Tides and Currents Weather Stations Pressure Air Temp Water Temp Dewpoint Dewpoint Depression Visibility Wind Speed Wind Dir Waves Ship Positions

Ryuhomaru

Last reported at 2014-Sep-18 05:33 UTC. Time now 2014-Sep-18 09:42 UTC.
Position N 34°33' E 135°27'.

Length 42 m; draft 3.5 m.

Type: Tug. MMSI: 431000586.

Date/timePositionNaut miles runAvg speedWind from/ knotsBaromVisibWave heightAir tempDewpointWater temp
2014-Sep-18 05:33N 34°33' E 135°27'0 0.0
2014-Sep-18 04:33N 34°33' E 135°27'0 0.0
2014-Sep-18 03:33N 34°33' E 135°27'0 0.0
2014-Sep-18 02:33N 34°33' E 135°27'0 0.0
2014-Sep-18 01:33N 34°33' E 135°27'2 1.1
2014-Sep-17 23:30N 34°34' E 135°24'3 3.1
2014-Sep-17 22:33N 34°33' E 135°21'5 4.8
2014-Sep-17 21:31N 34°33' E 135°27'0 0.0
2014-Sep-17 20:33N 34°33' E 135°27'0 0.0
2014-Sep-17 08:03N 34°33' E 135°27'2 4.2
2014-Sep-17 07:33N 34°33' E 135°24'1 1.1
2014-Sep-17 06:33N 34°33' E 135°23'2 2.2
2014-Sep-17 05:32N 34°33' E 135°25'1 1.0
2014-Sep-17 04:33N 34°33' E 135°27'0 0.0
2014-Sep-17 03:16N 34°33' E 135°27'0 0.0
2014-Sep-17 02:22N 34°33' E 135°27'0 0.0
2014-Sep-17 01:29N 34°33' E 135°27'0 0.0
2014-Sep-17 00:29N 34°33' E 135°27'3 3.2
2014-Sep-16 23:28N 34°33' E 135°23'2 2.4
2014-Sep-16 22:30N 34°33' E 135°25'1 1.2
2014-Sep-16 21:33N 34°33' E 135°27'0 0.0
2014-Sep-16 07:33N 34°33' E 135°27'4 3.7
2014-Sep-16 06:33N 34°31' E 135°23'4 3.7
2014-Sep-16 05:33N 34°33' E 135°27'0 0.0
2014-Sep-16 04:33N 34°33' E 135°27'0 0.0
2014-Sep-16 03:33N 34°33' E 135°27'0 0.0
2014-Sep-16 02:33N 34°33' E 135°27'0 0.0
2014-Sep-16 01:33N 34°33' E 135°27'1 1.1
2014-Sep-16 00:32N 34°33' E 135°25'0 0.3
2014-Sep-15 23:33N 34°33' E 135°26'1 0.9
2014-Sep-15 22:33N 34°33' E 135°27'  
2014-Sep-13 07:27N 34°33' E 135°27'2 2.3
2014-Sep-13 06:33N 34°33' E 135°24'0 0.1
2014-Sep-13 05:32N 34°33' E 135°24'0 0.1
2014-Sep-13 04:32N 34°33' E 135°24'0 0.1
2014-Sep-13 03:33N 34°33' E 135°24'0 0.1
2014-Sep-13 02:32N 34°33' E 135°24'0 0.0
2014-Sep-13 01:29N 34°33' E 135°24'0 0.1
2014-Sep-13 00:32N 34°33' E 135°24'0 0.0
2014-Sep-12 23:33N 34°33' E 135°24'0 0.1
2014-Sep-12 22:33N 34°33' E 135°24'0 0.1
2014-Sep-12 21:32N 34°33' E 135°24'0 0.1
2014-Sep-12 20:32N 34°33' E 135°24'0 0.1
2014-Sep-12 19:29N 34°33' E 135°24'0 0.0
2014-Sep-12 18:33N 34°33' E 135°24'0 0.1
2014-Sep-12 17:33N 34°33' E 135°24'0 0.0
2014-Sep-12 16:31N 34°33' E 135°24'0 0.2
2014-Sep-12 15:33N 34°33' E 135°24'0 0.1
2014-Sep-12 14:32N 34°33' E 135°24'0 0.1
2014-Sep-12 13:33N 34°33' E 135°24'0 0.1
2014-Sep-12 12:33N 34°33' E 135°24'0 0.1
2014-Sep-12 11:33N 34°33' E 135°24'0 0.1
2014-Sep-12 10:33N 34°33' E 135°24'0 0.1
2014-Sep-12 09:32N 34°33' E 135°24'0 0.1
2014-Sep-12 08:25N 34°33' E 135°24'0 0.1
2014-Sep-12 07:33N 34°33' E 135°24'0 0.3
2014-Sep-12 06:33N 34°33' E 135°24'2 1.8
2014-Sep-12 05:31N 34°33' E 135°27'0 0.0
2014-Sep-12 04:32N 34°33' E 135°27'2 2.1
2014-Sep-12 03:33N 34°34' E 135°24'0 0.1
2014-Sep-12 02:32N 34°34' E 135°24'4 3.5
2014-Sep-12 01:32N 34°33' E 135°20'4 3.9
2014-Sep-12 00:32N 34°33' E 135°25'1 1.5
2014-Sep-11 23:33N 34°33' E 135°27'0 0.0
2014-Sep-11 22:33N 34°33' E 135°27'0 0.0
2014-Sep-11 06:33N 34°33' E 135°27'1 1.2
2014-Sep-11 05:28N 34°33' E 135°25'3 3.7
2014-Sep-11 04:32N 34°33' E 135°21'4 1.7
2014-Sep-11 02:25N 34°31' E 135°24'3 1.5
2014-Sep-11 00:31N 34°33' E 135°24'1 1.2
2014-Sep-10 23:32N 34°33' E 135°26'1 0.0
2014-Sep-10 08:33N 34°33' E 135°27'1 0.9
2014-Sep-10 07:07N 34°33' E 135°25'1 2.1
2014-Sep-10 06:33N 34°33' E 135°27'0 0.0
2014-Sep-10 05:32N 34°33' E 135°27'0 0.0
2014-Sep-10 04:33N 34°33' E 135°27'0 0.0
2014-Sep-10 03:33N 34°33' E 135°27'0 0.0
2014-Sep-10 02:33N 34°33' E 135°27'0 0.0
2014-Sep-10 01:33N 34°33' E 135°27'0 0.0
2014-Sep-10 00:32N 34°33' E 135°27'0 0.0
2014-Sep-09 23:33N 34°33' E 135°27'0 0.0
2014-Sep-09 22:33N 34°33' E 135°27'0 0.0
2014-Sep-09 06:32N 34°33' E 135°27'0 0.0
2014-Sep-09 05:33N 34°33' E 135°27'0 0.0
2014-Sep-09 04:33N 34°33' E 135°27'1 1.3
2014-Sep-09 03:31N 34°33' E 135°25'0 0.2
2014-Sep-09 02:30N 34°33' E 135°25'4 4.4
2014-Sep-09 01:32N 34°34' E 135°20'0 0.5
2014-Sep-09 00:33N 34°34' E 135°21'5 3.8
2014-Sep-08 23:15N 34°33' E 135°27'  

Dump ship's entire track history